Time;durP1;ratioP1;P1;durP2;ratioP2;P2;SDS_P1;SDS_P2;PMS_P1;PMS_P2;Temp;Humidity;BMP_temperature;BMP_pressure;BME280_temperature;BME280_humidity;BME280_pressure;Samples;Min_cycle;Max_cycle;Signal;HPM_P1;HPM_P2
2023/12/28 00:00:20;;;;;;;36.40;12.10;;;1.80;99.90;;;;;;2603248;54;20732;31
2023/12/28 00:02:56;;;;;;;28.50;12.80;;;1.80;99.90;;;;;;2603052;54;20896;31
2023/12/28 00:05:31;;;;;;;31.20;12.10;;;1.80;99.90;;;;;;2602727;54;20896;31
2023/12/28 00:08:06;;;;;;;30.08;11.98;;;1.80;99.90;;;;;;2621421;46;20090;31
2023/12/28 00:10:41;;;;;;;33.45;12.73;;;1.70;99.90;;;;;;2602930;54;20072;31
2023/12/28 00:13:21;;;;;;;31.65;13.48;;;1.80;99.90;;;;;;2603089;54;20026;31
2023/12/28 00:15:55;;;;;;;36.10;13.82;;;1.80;99.90;;;;;;2621517;46;20921;31
2023/12/28 00:18:31;;;;;;;29.42;12.27;;;1.70;99.90;;;;;;2603164;54;20052;31
2023/12/28 00:21:08;;;;;;;32.40;13.30;;;1.70;99.90;;;;;;2621351;46;20033;31
2023/12/28 00:23:46;;;;;;;27.30;12.80;;;1.70;99.90;;;;;;2602971;54;20079;31
2023/12/28 00:26:22;;;;;;;32.53;13.57;;;1.70;99.90;;;;;;2602903;54;21297;31
2023/12/28 00:29:11;;;;;;;35.45;14.43;;;1.70;99.90;;;;;;2603078;54;21070;31
2023/12/28 00:31:46;;;;;;;29.38;13.45;;;1.70;99.90;;;;;;2603015;54;20027;31
2023/12/28 00:34:21;;;;;;;33.55;13.48;;;1.70;99.90;;;;;;2602827;54;20105;31
2023/12/28 00:36:56;;;;;;;30.48;13.88;;;1.70;99.90;;;;;;2602983;54;20069;31
2023/12/28 00:39:32;;;;;;;30.77;11.95;;;1.70;99.90;;;;;;2602859;54;21403;31
2023/12/28 00:42:08;;;;;;;37.70;14.75;;;1.60;99.90;;;;;;2602845;54;20089;31
2023/12/28 00:44:41;;;;;;;30.30;14.50;;;1.60;99.90;;;;;;2602718;54;20905;31
2023/12/28 00:47:20;;;;;;;35.37;15.43;;;1.60;99.90;;;;;;2603016;54;20033;31
2023/12/28 00:49:55;;;;;;;31.90;16.30;;;1.60;99.90;;;;;;2602793;54;20252;31
2023/12/28 00:52:30;;;;;;;34.20;14.55;;;1.60;99.90;;;;;;2602686;54;20891;31
2023/12/28 00:55:07;;;;;;;31.83;14.40;;;1.50;99.90;;;;;;2621056;46;20034;31
2023/12/28 00:57:43;;;;;;;31.35;15.27;;;1.60;99.90;;;;;;2602970;54;20474;31
2023/12/28 01:00:18;;;;;;;37.00;17.00;;;1.50;99.90;;;;;;2602760;54;20727;31
2023/12/28 01:02:55;;;;;;;42.20;16.65;;;1.50;99.90;;;;;;2602891;54;20766;31
2023/12/28 01:05:31;;;;;;;34.43;15.50;;;1.50;99.90;;;;;;2602805;54;20895;31
2023/12/28 01:08:07;;;;;;;35.17;16.67;;;1.60;99.90;;;;;;2602708;54;20247;31
2023/12/28 01:10:42;;;;;;;;;;;1.50;99.90;;;;;;2603088;54;20269;31
2023/12/28 01:13:17;;;;;;;35.85;16.38;;;1.50;99.90;;;;;;2602854;54;19934;31
2023/12/28 01:15:52;;;;;;;;;;;1.50;99.90;;;;;;2602937;54;20037;31
2023/12/28 01:18:29;;;;;;;35.28;15.85;;;1.50;99.90;;;;;;2602408;54;19984;31
2023/12/28 01:21:05;;;;;;;34.60;16.03;;;1.50;99.90;;;;;;2720044;39;21301;31
2023/12/28 01:23:40;;;;;;;;;;;1.40;99.90;;;;;;2602975;54;20265;31
2023/12/28 01:26:17;;;;;;;29.80;14.07;;;1.50;99.90;;;;;;2602773;54;19949;31
2023/12/28 01:28:52;;;;;;;38.00;17.30;;;1.40;99.90;;;;;;2602783;54;20884;31
2023/12/28 01:31:27;;;;;;;39.93;15.87;;;1.40;99.90;;;;;;2621267;46;20027;31
2023/12/28 01:34:05;;;;;;;33.05;15.60;;;1.40;99.90;;;;;;2621321;46;20034;31
2023/12/28 01:36:44;;;;;;;40.38;16.80;;;1.50;99.90;;;;;;2602781;54;20026;31
2023/12/28 01:39:20;;;;;;;34.63;16.58;;;1.40;99.90;;;;;;2621299;46;20876;31
2023/12/28 01:41:56;;;;;;;35.08;16.20;;;1.40;99.90;;;;;;2621190;46;20026;31
2023/12/28 01:44:33;;;;;;;38.80;16.55;;;1.50;99.90;;;;;;2602620;54;20029;31
2023/12/28 01:47:08;;;;;;;36.03;16.52;;;1.50;99.90;;;;;;2602315;54;20096;31
2023/12/28 01:49:45;;;;;;;34.10;17.23;;;1.50;99.90;;;;;;2602647;54;20093;31
2023/12/28 01:52:21;;;;;;;40.43;17.53;;;1.40;99.90;;;;;;2602985;54;20877;31
2023/12/28 01:54:56;;;;;;;35.65;17.75;;;1.40;99.90;;;;;;2602747;54;20348;31
2023/12/28 01:57:30;;;;;;;39.10;16.90;;;1.40;99.90;;;;;;2602433;54;20056;31
2023/12/28 02:00:07;;;;;;;39.72;17.67;;;1.40;99.90;;;;;;2602548;54;20279;31
2023/12/28 02:02:50;;;;;;;40.40;17.60;;;1.40;99.90;;;;;;2603099;54;20022;31
2023/12/28 02:05:28;;;;;;;38.58;16.60;;;1.40;99.90;;;;;;2603521;54;20872;31
2023/12/28 02:08:03;;;;;;;37.10;17.00;;;1.40;99.90;;;;;;2603159;54;20888;31
2023/12/28 02:10:37;;;;;;;38.70;17.23;;;1.40;99.90;;;;;;2603567;54;20023;31
2023/12/28 02:13:13;;;;;;;39.92;17.20;;;1.40;99.90;;;;;;2603301;54;20027;31
2023/12/28 02:15:48;;;;;;;33.00;16.05;;;1.40;99.90;;;;;;2621916;46;20881;31
2023/12/28 02:18:26;;;;;;;39.83;17.63;;;1.40;99.90;;;;;;2603365;54;20055;31
2023/12/28 02:21:05;;;;;;;39.55;17.60;;;1.40;99.90;;;;;;2603373;54;20747;31
2023/12/28 02:23:39;;;;;;;41.88;17.73;;;1.30;99.90;;;;;;2603247;54;20156;31
2023/12/28 02:26:17;;;;;;;42.35;19.30;;;1.30;99.90;;;;;;2603518;54;20926;31
2023/12/28 02:28:54;;;;;;;40.15;17.20;;;1.30;99.90;;;;;;2603524;54;20746;31
2023/12/28 02:31:30;;;;;;;41.63;17.48;;;1.20;99.90;;;;;;2603261;54;20026;31
2023/12/28 02:34:09;;;;;;;43.67;20.00;;;1.20;99.90;;;;;;2603410;54;20872;31
2023/12/28 02:36:44;;;;;;;39.15;17.70;;;1.20;99.90;;;;;;2603318;54;21133;31
2023/12/28 02:39:19;;;;;;;41.67;16.92;;;1.20;99.90;;;;;;2603204;54;20027;31
2023/12/28 02:41:57;;;;;;;42.27;17.37;;;1.20;99.90;;;;;;2603439;54;20034;31
2023/12/28 02:44:33;;;;;;;39.03;17.35;;;1.20;99.90;;;;;;2603229;54;20027;31
2023/12/28 02:47:08;;;;;;;38.70;19.00;;;1.20;99.90;;;;;;2603226;54;20032;31
2023/12/28 02:49:43;;;;;;;46.97;18.95;;;1.20;99.90;;;;;;2603412;54;21091;31
2023/12/28 02:52:18;;;;;;;41.95;18.45;;;1.10;99.90;;;;;;2603399;54;20056;31
2023/12/28 02:54:53;;;;;;;36.23;17.57;;;1.10;99.90;;;;;;2603343;54;20877;31
2023/12/28 02:57:32;;;;;;;35.95;17.25;;;1.10;99.90;;;;;;2603295;54;21167;31
2023/12/28 03:00:08;;;;;;;41.83;16.92;;;1.10;99.90;;;;;;2603338;54;20751;31
2023/12/28 03:02:43;;;;;;;48.40;19.20;;;1.10;99.90;;;;;;2603211;54;20085;31
2023/12/28 03:05:19;;;;;;;42.75;18.65;;;1.00;99.90;;;;;;2603207;54;20027;31
2023/12/28 03:07:55;;;;;;;42.78;18.77;;;1.00;99.90;;;;;;2603163;54;20883;31
2023/12/28 03:10:31;;;;;;;39.53;16.77;;;1.00;99.90;;;;;;2603097;54;20030;31
2023/12/28 03:13:08;;;;;;;35.95;17.35;;;1.00;99.90;;;;;;2603024;54;20028;31
2023/12/28 03:15:42;;;;;;;39.22;17.20;;;1.00;99.90;;;;;;2603313;54;20775;31
2023/12/28 03:18:19;;;;;;;33.97;17.67;;;1.00;99.90;;;;;;2621602;46;20087;31
2023/12/28 03:20:56;;;;;;;37.38;17.02;;;1.00;99.90;;;;;;2602967;54;20030;31
2023/12/28 03:23:32;;;;;;;42.95;18.42;;;1.00;99.90;;;;;;2602917;54;20481;31
2023/12/28 03:26:07;;;;;;;38.80;17.30;;;1.00;99.90;;;;;;2621518;46;20027;31
2023/12/28 03:28:45;;;;;;;41.38;18.98;;;1.00;99.90;;;;;;2603024;54;20027;31
2023/12/28 03:31:21;;;;;;;36.95;17.30;;;1.00;99.90;;;;;;2621417;46;20107;31
2023/12/28 03:33:56;;;;;;;40.38;17.17;;;1.00;99.90;;;;;;2602856;54;20049;31
2023/12/28 03:36:31;;;;;;;40.07;15.90;;;1.00;99.90;;;;;;2603000;54;20795;31
2023/12/28 03:57:20;;;;;;;36.90;14.75;;;1.00;99.90;;;;;;2603177;54;22242;31
2023/12/28 03:59:54;;;;;;;34.10;14.13;;;1.00;99.90;;;;;;2602809;54;20030;31
2023/12/28 04:02:31;;;;;;;28.60;14.00;;;1.00;99.90;;;;;;2602856;54;21109;31
2023/12/28 04:05:09;;;;;;;33.17;14.45;;;1.00;99.90;;;;;;2621199;46;20239;31
2023/12/28 04:07:45;;;;;;;28.35;13.35;;;1.00;99.90;;;;;;2621267;46;20065;31
2023/12/28 04:10:31;;;;;;;32.40;14.07;;;1.10;99.90;;;;;;2602851;54;20062;31
2023/12/28 04:13:09;;;;;;;31.15;13.30;;;1.10;99.90;;;;;;2603050;54;20026;31
2023/12/28 04:15:45;;;;;;;27.23;12.43;;;1.10;99.90;;;;;;2602703;54;20931;31
2023/12/28 04:18:18;;;;;;;30.45;13.60;;;1.10;99.90;;;;;;2621374;46;22562;31
2023/12/28 04:20:52;;;;;;;28.83;12.30;;;1.20;99.90;;;;;;2602796;54;20031;31
2023/12/28 04:23:28;;;;;;;25.10;11.80;;;1.20;99.90;;;;;;2602955;54;20027;31
2023/12/28 04:26:02;;;;;;;25.38;11.75;;;1.20;99.90;;;;;;2621081;46;20277;31
2023/12/28 04:28:40;;;;;;;30.10;12.05;;;1.20;99.90;;;;;;2602751;54;20026;31
2023/12/28 04:31:14;;;;;;;24.00;11.00;;;1.30;99.90;;;;;;2602786;54;21096;31
2023/12/28 04:33:51;;;;;;;24.80;11.13;;;1.30;99.90;;;;;;2602681;54;20908;31
2023/12/28 04:36:25;;;;;;;22.23;10.27;;;1.30;99.90;;;;;;2602705;54;21215;31
2023/12/28 04:39:00;;;;;;;23.17;11.60;;;1.30;99.90;;;;;;2621362;46;20288;31
2023/12/28 04:41:35;;;;;;;24.70;11.15;;;1.30;99.90;;;;;;2602689;54;20238;31
2023/12/28 04:44:13;;;;;;;24.05;11.05;;;1.30;99.90;;;;;;2602979;54;20872;31
2023/12/28 04:46:48;;;;;;;21.97;9.57;;;1.30;99.90;;;;;;2620982;46;20076;31
2023/12/28 04:49:24;;;;;;;23.20;10.82;;;1.30;99.90;;;;;;2602870;54;20269;31
2023/12/28 04:52:00;;;;;;;22.05;10.70;;;1.30;99.90;;;;;;2602655;54;20027;31
2023/12/28 04:54:34;;;;;;;24.00;11.80;;;1.30;99.90;;;;;;2602813;54;20819;31
2023/12/28 04:57:11;;;;;;;20.30;10.10;;;1.40;99.90;;;;;;2602741;54;20033;31
2023/12/28 04:59:48;;;;;;;26.83;10.90;;;1.30;99.90;;;;;;2602692;54;20026;31
2023/12/28 05:02:22;;;;;;;23.80;11.00;;;1.30;99.90;;;;;;2602813;54;20335;31
2023/12/28 05:04:58;;;;;;;23.38;11.57;;;1.20;99.90;;;;;;2602859;54;20406;31
2023/12/28 05:07:34;;;;;;;20.42;11.85;;;1.30;99.90;;;;;;2602866;54;20779;31
2023/12/28 05:10:10;;;;;;;24.65;11.43;;;1.20;99.90;;;;;;2602656;54;20027;31
2023/12/28 05:12:45;;;;;;;25.55;11.30;;;1.30;99.90;;;;;;2602736;54;20931;31
2023/12/28 05:15:23;;;;;;;20.67;11.43;;;1.20;99.90;;;;;;2602547;54;20854;31
2023/12/28 05:17:58;;;;;;;21.45;10.65;;;1.30;99.90;;;;;;2621354;46;21103;31
2023/12/28 05:20:33;;;;;;;22.63;9.95;;;1.30;99.90;;;;;;2602750;54;20870;31
2023/12/28 05:23:09;;;;;;;20.23;10.15;;;1.20;99.90;;;;;;2602861;54;20042;31
2023/12/28 05:25:46;;;;;;;23.80;9.85;;;1.30;99.90;;;;;;2602377;54;20034;31
2023/12/28 05:28:21;;;;;;;21.77;10.43;;;1.30;99.90;;;;;;2620994;46;20242;31
2023/12/28 05:30:58;;;;;;;25.10;10.70;;;1.30;99.90;;;;;;2617993;39;20335;31
2023/12/28 05:33:34;;;;;;;23.45;10.45;;;1.30;99.90;;;;;;2667353;39;20354;31
2023/12/28 05:36:09;;;;;;;22.17;10.38;;;1.30;99.90;;;;;;2602484;54;20051;31
2023/12/28 05:38:46;;;;;;;21.48;9.85;;;1.30;99.90;;;;;;2612310;31;21199;31
2023/12/28 05:41:20;;;;;;;20.90;10.20;;;1.30;99.90;;;;;;2602449;54;20034;31
2023/12/28 05:43:55;;;;;;;22.35;9.55;;;1.30;99.90;;;;;;2602736;54;20046;31
2023/12/28 05:46:33;;;;;;;19.63;7.93;;;1.40;99.90;;;;;;2602492;54;20030;31
2023/12/28 05:49:08;;;;;;;14.60;6.57;;;1.40;99.90;;;;;;2620805;47;20034;31
2023/12/28 05:51:44;;;;;;;9.15;4.78;;;1.50;99.90;;;;;;2602912;54;20975;31
2023/12/28 05:54:19;;;;;;;8.25;3.35;;;1.60;99.90;;;;;;2700730;39;21214;31
2023/12/28 05:56:54;;;;;;;5.38;2.45;;;1.80;99.90;;;;;;2602633;54;20097;31
2023/12/28 05:59:29;;;;;;;4.50;2.17;;;2.00;99.90;;;;;;2602444;54;20880;31
2023/12/28 06:02:07;;;;;;;5.10;2.05;;;2.20;99.90;;;;;;2602753;54;20858;31
2023/12/28 06:04:42;;;;;;;3.67;1.70;;;2.40;99.90;;;;;;2602516;54;20791;31
2023/12/28 06:07:17;;;;;;;4.00;1.60;;;2.70;99.90;;;;;;2602326;54;20037;31
2023/12/28 06:09:52;;;;;;;8.13;1.85;;;3.00;99.90;;;;;;2602300;54;20038;31
2023/12/28 06:12:32;;;;;;;4.78;1.95;;;3.20;99.90;;;;;;2602624;54;20778;31
2023/12/28 06:15:06;;;;;;;2.70;1.27;;;3.40;99.90;;;;;;2620828;47;20915;31
2023/12/28 06:17:44;;;;;;;4.53;1.50;;;3.60;99.90;;;;;;2602652;54;20832;31
2023/12/28 06:22:54;;;;;;;2.15;1.10;;;4.00;99.10;;;;;;2602646;54;20068;31
2023/12/28 06:28:14;;;;;;;3.45;1.20;;;4.30;93.90;;;;;;2602524;54;20023;31
2023/12/28 06:30:49;;;;;;;2.43;1.00;;;4.50;92.00;;;;;;2602469;54;20904;31
2023/12/28 06:33:27;;;;;;;2.63;1.23;;;4.60;88.70;;;;;;2602387;54;20053;31
2023/12/28 06:36:08;;;;;;;3.30;1.20;;;4.80;85.30;;;;;;2602393;54;20027;31
2023/12/28 06:38:42;;;;;;;2.50;1.20;;;4.90;79.80;;;;;;2602551;54;20985;31
2023/12/28 06:41:17;;;;;;;2.45;1.30;;;5.10;74.00;;;;;;2602458;54;20030;31
2023/12/28 06:43:53;;;;;;;1.70;1.00;;;5.20;71.30;;;;;;2621195;47;20030;31
2023/12/28 06:46:27;;;;;;;2.25;1.30;;;5.30;70.90;;;;;;2602194;54;20027;31
2023/12/28 06:49:05;;;;;;;2.27;1.17;;;5.40;67.50;;;;;;2602801;54;20031;31
2023/12/28 06:51:47;;;;;;;2.85;1.38;;;5.40;66.60;;;;;;2603351;54;21148;31
2023/12/28 06:54:22;;;;;;;4.13;1.37;;;5.50;65.80;;;;;;2603144;54;20080;31
2023/12/28 06:56:57;;;;;;;3.27;1.10;;;5.50;61.40;;;;;;2603009;54;20023;31
2023/12/28 06:59:33;;;;;;;3.10;1.30;;;5.70;57.70;;;;;;2603165;54;20871;31
2023/12/28 07:02:16;;;;;;;3.47;1.50;;;5.70;56.50;;;;;;2602963;54;20033;31
2023/12/28 07:04:56;;;;;;;3.30;1.40;;;5.80;54.80;;;;;;2602989;54;20739;31
2023/12/28 07:07:30;;;;;;;3.65;1.23;;;5.90;51.40;;;;;;2602791;54;20093;31
2023/12/28 07:10:11;;;;;;;3.45;1.45;;;6.00;51.00;;;;;;2603211;54;20735;31
2023/12/28 07:12:45;;;;;;;3.25;1.13;;;6.10;48.30;;;;;;2603160;54;20869;31
2023/12/28 07:15:22;;;;;;;3.25;1.45;;;6.20;50.40;;;;;;2621638;46;20022;31
2023/12/28 07:17:57;;;;;;;5.17;1.40;;;6.20;50.40;;;;;;2603321;54;20037;31
2023/12/28 07:20:35;;;;;;;3.67;1.25;;;6.30;45.50;;;;;;2602982;54;20238;31
2023/12/28 07:23:11;;;;;;;5.40;1.60;;;6.50;44.80;;;;;;2602916;54;20034;31
2023/12/28 07:25:47;;;;;;;2.83;1.10;;;6.60;43.80;;;;;;2603002;54;20813;31
2023/12/28 07:28:23;;;;;;;2.20;0.90;;;6.70;40.40;;;;;;2603074;54;20069;31
2023/12/28 07:30:59;;;;;;;1.93;1.07;;;6.90;37.30;;;;;;2603152;54;20022;31
2023/12/28 07:33:36;;;;;;;;;;;7.10;37.60;;;;;;2603217;54;20030;31
2023/12/28 07:36:15;;;;;;;6.15;1.60;;;7.30;33.10;;;;;;2602801;54;19934;31
2023/12/28 07:38:50;;;;;;;3.33;1.05;;;7.40;29.80;;;;;;2603121;54;20076;31
2023/12/28 07:41:26;;;;;;;2.20;1.20;;;7.50;29.10;;;;;;2602763;54;20809;31
2023/12/28 07:44:05;;;;;;;2.72;1.30;;;7.60;25.50;;;;;;2602852;54;21131;31
2023/12/28 07:46:41;;;;;;;3.63;1.33;;;7.70;25.00;;;;;;2603193;54;20026;31
2023/12/28 07:49:17;;;;;;;4.70;1.63;;;7.70;22.00;;;;;;2621249;46;20036;31
2023/12/28 07:51:56;;;;;;;3.10;1.50;;;7.70;23.10;;;;;;2602757;54;20768;31
2023/12/28 07:54:31;;;;;;;2.25;1.02;;;7.80;23.50;;;;;;2602931;54;20736;31
2023/12/28 07:57:07;;;;;;;2.70;1.13;;;7.70;24.70;;;;;;2621257;46;20034;31
2023/12/28 07:59:44;;;;;;;3.70;1.30;;;7.70;22.20;;;;;;2617146;46;20065;31
2023/12/28 08:02:21;;;;;;;2.15;0.95;;;7.80;21.90;;;;;;2602185;54;21086;31
2023/12/28 08:04:58;;;;;;;4.55;1.40;;;7.80;20.90;;;;;;2602850;54;20794;31
2023/12/28 08:07:47;;;;;;;2.08;1.10;;;7.90;21.00;;;;;;2621734;46;20744;31
2023/12/28 08:10:23;;;;;;;6.10;1.23;;;7.90;30.20;;;;;;2602933;54;20026;31
2023/12/28 08:16:00;;;;;;;2.95;0.75;;;7.90;28.80;;;;;;2602148;54;20149;31
2023/12/28 08:18:38;;;;;;;;;;;7.90;28.50;;;;;;2621442;46;20052;31
2023/12/28 08:21:14;;;;;;;2.53;1.25;;;7.90;30.10;;;;;;2602877;54;19934;31
2023/12/28 08:23:55;;;;;;;2.90;1.33;;;7.90;28.20;;;;;;2602744;54;20026;31
2023/12/28 08:26:32;;;;;;;2.92;0.90;;;7.90;28.50;;;;;;2621226;46;20072;31
2023/12/28 08:29:08;;;;;;;2.72;1.33;;;8.00;30.80;;;;;;2602866;54;20933;31
2023/12/28 08:31:45;;;;;;;3.20;1.37;;;8.00;31.40;;;;;;2602827;54;20030;31
2023/12/28 08:34:23;;;;;;;2.13;1.05;;;8.00;26.90;;;;;;2602742;54;21241;31
2023/12/28 08:36:58;;;;;;;2.92;1.20;;;8.10;25.80;;;;;;2602729;54;20057;31
2023/12/28 08:39:39;;;;;;;3.42;1.25;;;8.20;26.90;;;;;;2602649;54;20026;31
2023/12/28 08:42:14;;;;;;;4.05;1.50;;;8.30;22.40;;;;;;2602903;54;20038;31
2023/12/28 08:44:53;;;;;;;4.55;1.40;;;8.40;22.70;;;;;;2701231;39;21378;31
2023/12/28 08:47:29;;;;;;;2.35;1.00;;;8.40;20.80;;;;;;2602896;54;20923;31
2023/12/28 08:50:04;;;;;;;3.08;1.15;;;8.50;22.70;;;;;;2602633;54;20085;31
2023/12/28 08:52:39;;;;;;;2.10;1.20;;;8.50;24.00;;;;;;2701033;39;21426;31
2023/12/28 08:55:19;;;;;;;3.85;1.55;;;8.60;23.20;;;;;;2621218;46;20872;31
2023/12/28 08:57:53;;;;;;;3.10;1.37;;;8.60;26.10;;;;;;2602412;54;20536;31
2023/12/28 09:00:30;;;;;;;3.88;1.60;;;8.60;24.60;;;;;;2620999;46;20262;31
2023/12/28 09:03:05;;;;;;;2.80;1.15;;;8.70;25.60;;;;;;2602791;54;20508;31
2023/12/28 09:05:41;;;;;;;1.70;0.85;;;8.70;26.40;;;;;;2602692;54;20780;31
2023/12/28 09:08:20;;;;;;;3.45;1.30;;;8.70;28.10;;;;;;2602661;54;20770;31
2023/12/28 09:10:59;;;;;;;3.38;1.30;;;8.70;28.70;;;;;;2610808;46;20906;31
2023/12/28 09:13:34;;;;;;;2.87;1.17;;;8.70;36.30;;;;;;2601858;54;20907;31
2023/12/28 09:16:11;;;;;;;8.75;2.50;;;8.70;33.20;;;;;;2602673;54;20049;31
2023/12/28 09:18:46;;;;;;;3.65;2.00;;;8.70;31.60;;;;;;2602844;54;20516;31
2023/12/28 09:21:22;;;;;;;6.07;1.57;;;8.70;32.10;;;;;;2602689;54;20537;31
2023/12/28 09:23:59;;;;;;;3.08;1.67;;;8.70;31.90;;;;;;2602562;54;21249;31
2023/12/28 09:26:38;;;;;;;6.32;1.70;;;8.70;32.40;;;;;;2602497;54;20790;31
2023/12/28 09:29:14;;;;;;;5.43;3.20;;;8.80;32.00;;;;;;2601806;54;20030;31
2023/12/28 09:31:49;;;;;;;;;;;8.80;33.40;;;;;;2602801;54;20857;31
2023/12/28 09:34:25;;;;;;;4.78;1.67;;;8.80;29.60;;;;;;2602459;54;19990;31
2023/12/28 09:36:59;;;;;;;4.50;1.80;;;8.80;29.80;;;;;;2602526;54;21742;31
2023/12/28 09:39:37;;;;;;;4.00;2.03;;;8.80;32.40;;;;;;2621442;46;20026;31
2023/12/28 09:42:19;;;;;;;5.13;2.08;;;8.80;34.50;;;;;;2602436;54;20089;31
2023/12/28 09:44:56;;;;;;;5.20;2.20;;;8.80;33.70;;;;;;2602632;54;20568;31
2023/12/28 09:47:31;;;;;;;6.13;1.85;;;8.80;35.20;;;;;;2602351;54;20100;31
2023/12/28 09:50:10;;;;;;;3.55;1.60;;;8.80;34.10;;;;;;2602406;54;20740;31
2023/12/28 09:52:45;;;;;;;3.72;1.80;;;8.80;34.90;;;;;;2602717;54;20048;31
2023/12/28 09:55:21;;;;;;;5.75;2.20;;;8.80;35.80;;;;;;2621212;47;20026;31
2023/12/28 09:58:00;;;;;;;5.80;1.50;;;8.90;31.00;;;;;;2620851;47;20031;31
2023/12/28 10:00:36;;;;;;;3.72;1.77;;;8.90;31.40;;;;;;2602293;54;20059;31
2023/12/28 10:03:12;;;;;;;4.97;1.83;;;9.00;30.40;;;;;;2602315;54;20937;31
2023/12/28 10:05:52;;;;;;;3.85;1.80;;;9.00;31.20;;;;;;2602363;54;20847;31
2023/12/28 10:08:27;;;;;;;3.88;1.65;;;8.90;30.20;;;;;;2621011;47;20895;31
2023/12/28 10:11:02;;;;;;;4.60;2.10;;;9.00;30.00;;;;;;2602319;54;20046;31
2023/12/28 10:13:40;;;;;;;3.95;1.88;;;9.00;30.40;;;;;;2673989;31;20121;31
2023/12/28 10:16:15;;;;;;;4.78;2.88;;;9.10;30.00;;;;;;2602541;54;20049;31
2023/12/28 10:18:58;;;;;;;4.25;1.88;;;9.10;31.60;;;;;;2602364;54;20890;31
2023/12/28 10:21:34;;;;;;;5.20;2.00;;;9.10;31.70;;;;;;2620973;47;20896;31
2023/12/28 10:24:09;;;;;;;4.90;1.50;;;9.10;31.90;;;;;;2602717;54;20031;31
2023/12/28 10:26:44;;;;;;;4.10;1.75;;;9.10;30.60;;;;;;2603214;54;20777;31
2023/12/28 10:29:22;;;;;;;3.67;1.67;;;9.20;32.20;;;;;;2603102;54;20851;31
2023/12/28 10:31:57;;;;;;;3.25;1.48;;;9.20;35.20;;;;;;2603033;54;20053;31
2023/12/28 10:34:32;;;;;;;3.90;1.58;;;9.10;35.10;;;;;;2603176;54;20875;31
2023/12/28 10:37:08;;;;;;;5.18;2.05;;;9.20;35.90;;;;;;2603027;54;20884;31
2023/12/28 10:39:44;;;;;;;3.53;1.85;;;9.20;37.30;;;;;;2609099;46;20026;31
2023/12/28 10:42:23;;;;;;;4.50;2.05;;;9.20;39.30;;;;;;2603071;54;20905;31
2023/12/28 10:45:05;;;;;;;5.60;1.73;;;9.20;39.20;;;;;;2602731;54;20904;31
2023/12/28 10:47:45;;;;;;;4.90;1.87;;;9.20;40.30;;;;;;2602901;54;20731;31
2023/12/28 10:50:21;;;;;;;4.47;2.20;;;9.20;41.90;;;;;;2621529;46;20034;31
2023/12/28 10:52:59;;;;;;;4.40;2.17;;;9.20;42.70;;;;;;2621078;46;20881;31
2023/12/28 10:55:40;;;;;;;3.90;1.52;;;9.20;46.40;;;;;;2603222;54;20888;31
2023/12/28 10:58:19;;;;;;;5.70;2.08;;;9.20;46.70;;;;;;2621219;46;20033;31
2023/12/28 11:01:01;;;;;;;7.30;1.88;;;9.20;49.50;;;;;;2602986;54;20956;31
2023/12/28 11:03:40;;;;;;;5.25;2.58;;;9.20;51.70;;;;;;2603089;54;20034;31
2023/12/28 11:06:15;;;;;;;5.97;2.72;;;9.30;47.70;;;;;;2621475;46;20026;31
2023/12/28 11:08:51;;;;;;;6.97;2.90;;;9.30;53.20;;;;;;2610441;46;20026;31
2023/12/28 11:11:25;;;;;;;4.37;2.50;;;9.40;52.60;;;;;;2602948;54;20774;31
2023/12/28 11:14:02;;;;;;;11.87;3.97;;;9.40;49.30;;;;;;2621459;46;20077;31
2023/12/28 11:16:38;;;;;;;;;;;9.50;63.20;;;;;;2603004;54;20108;31
2023/12/28 11:19:14;;;;;;;4.40;2.30;;;9.50;46.60;;;;;;2602874;54;19961;31
2023/12/28 11:21:50;;;;;;;4.80;1.95;;;9.50;45.20;;;;;;2603010;54;20907;31
2023/12/28 11:24:24;;;;;;;4.45;2.00;;;9.50;45.20;;;;;;2603045;54;20849;31
2023/12/28 11:27:00;;;;;;;4.97;2.30;;;9.50;48.90;;;;;;2603042;54;20076;31
2023/12/28 11:29:35;;;;;;;5.68;2.10;;;9.50;49.00;;;;;;2621347;46;20873;31
2023/12/28 11:32:13;;;;;;;5.40;2.20;;;9.50;51.90;;;;;;2602528;54;20555;31
2023/12/28 11:34:48;;;;;;;6.20;2.30;;;9.50;51.70;;;;;;2602761;54;20031;31
2023/12/28 11:37:23;;;;;;;6.43;2.08;;;9.60;48.10;;;;;;2602749;54;20563;31
2023/12/28 11:40:01;;;;;;;5.40;2.08;;;9.60;48.50;;;;;;2621407;46;20939;31
2023/12/28 11:42:36;;;;;;;4.78;2.13;;;9.60;48.90;;;;;;2602780;54;20575;31
2023/12/28 11:45:12;;;;;;;8.57;2.65;;;9.60;54.30;;;;;;2602719;54;20038;31
2023/12/28 11:47:49;;;;;;;5.18;2.50;;;9.60;49.70;;;;;;2621308;46;20233;31
2023/12/28 11:50:26;;;;;;;4.07;1.88;;;9.60;50.00;;;;;;2602967;54;20636;31
2023/12/28 11:53:02;;;;;;;3.97;1.73;;;9.60;48.70;;;;;;2602824;54;20031;31
2023/12/28 11:55:38;;;;;;;4.53;2.67;;;9.70;49.50;;;;;;2621532;46;20042;31
2023/12/28 11:58:14;;;;;;;4.03;1.73;;;9.70;50.20;;;;;;2602845;54;20054;31
2023/12/28 12:00:50;;;;;;;8.00;2.23;;;9.70;52.30;;;;;;2602849;54;20765;31
2023/12/28 12:03:29;;;;;;;4.55;2.15;;;9.70;54.20;;;;;;2602812;54;20477;31
2023/12/28 12:06:05;;;;;;;4.20;2.17;;;9.70;52.70;;;;;;2602920;54;20103;31
2023/12/28 12:08:41;;;;;;;5.38;1.92;;;9.70;53.00;;;;;;2602853;54;20892;31
2023/12/28 12:11:19;;;;;;;4.68;2.10;;;9.70;51.90;;;;;;2621028;46;20599;31
2023/12/28 12:13:55;;;;;;;3.47;2.00;;;9.60;51.20;;;;;;2602795;54;20670;31
2023/12/28 12:16:31;;;;;;;3.15;1.90;;;9.60;54.40;;;;;;2602991;54;20765;31
2023/12/28 12:19:09;;;;;;;4.90;1.85;;;9.60;53.40;;;;;;2602594;54;20031;31
2023/12/28 12:21:45;;;;;;;5.20;2.17;;;9.60;52.10;;;;;;2602697;54;20129;31
2023/12/28 12:24:22;;;;;;;3.33;1.85;;;9.60;50.00;;;;;;2620986;46;20080;31
2023/12/28 12:27:04;;;;;;;3.40;1.95;;;9.60;49.50;;;;;;2602680;54;20769;31
2023/12/28 12:29:40;;;;;;;5.20;2.00;;;9.60;50.90;;;;;;2602840;54;21410;31
2023/12/28 12:32:15;;;;;;;3.78;2.33;;;9.60;50.30;;;;;;2602530;54;20658;31
2023/12/28 12:34:54;;;;;;;2.90;1.70;;;9.60;51.50;;;;;;2620872;46;20030;31
2023/12/28 12:37:28;;;;;;;4.68;2.45;;;9.50;51.00;;;;;;2620781;46;20260;31
2023/12/28 12:40:06;;;;;;;4.75;2.13;;;9.50;49.50;;;;;;2700325;39;20623;31
2023/12/28 12:42:42;;;;;;;5.33;1.90;;;9.50;47.70;;;;;;2602670;54;20040;31
2023/12/28 12:45:22;;;;;;;6.00;2.10;;;9.60;48.00;;;;;;2602686;54;20234;31
2023/12/28 12:47:59;;;;;;;4.15;1.88;;;9.50;50.10;;;;;;2602626;54;20926;31
2023/12/28 12:50:39;;;;;;;3.20;1.80;;;9.50;49.30;;;;;;2601999;54;20018;31
2023/12/28 12:53:16;;;;;;;4.10;1.70;;;9.40;48.60;;;;;;2602570;54;20031;31
2023/12/28 12:55:52;;;;;;;3.47;1.95;;;9.40;51.70;;;;;;2701002;39;20503;31
2023/12/28 12:58:30;;;;;;;3.13;1.53;;;9.40;51.60;;;;;;2602539;54;20034;31
2023/12/28 13:01:15;;;;;;;9.38;3.65;;;9.40;50.90;;;;;;2602765;54;22400;31
2023/12/28 13:03:51;;;;;;;4.35;2.28;;;9.40;83.80;;;;;;2602726;54;20969;31
2023/12/28 13:06:27;;;;;;;8.88;2.72;;;9.60;54.90;;;;;;2620898;46;21190;31
2023/12/28 13:09:06;;;;;;;4.45;2.30;;;9.70;74.80;;;;;;2602643;54;20872;31
2023/12/28 13:11:43;;;;;;;4.00;1.97;;;9.70;46.30;;;;;;2602431;54;20033;31
2023/12/28 13:14:20;;;;;;;3.28;2.00;;;9.70;46.20;;;;;;2718862;39;21431;31
2023/12/28 13:16:58;;;;;;;5.93;2.20;;;9.60;46.40;;;;;;2601919;54;20028;31
2023/12/28 13:19:34;;;;;;;7.05;2.03;;;9.60;45.20;;;;;;2719403;39;20518;31
2023/12/28 13:22:17;;;;;;;3.72;1.95;;;9.50;49.10;;;;;;2602487;54;20587;31
2023/12/28 13:24:54;;;;;;;4.22;2.25;;;9.50;47.50;;;;;;2621301;46;20053;31
2023/12/28 13:27:31;;;;;;;5.10;2.42;;;9.50;48.90;;;;;;2620833;46;20037;31
2023/12/28 13:30:11;;;;;;;5.20;2.63;;;9.40;48.20;;;;;;2602583;54;20771;31
2023/12/28 13:32:47;;;;;;;4.93;2.40;;;9.40;48.20;;;;;;2602478;54;20802;31
2023/12/28 13:35:25;;;;;;;5.45;2.30;;;9.40;48.60;;;;;;2602571;54;20788;31
2023/12/28 13:38:06;;;;;;;5.43;2.00;;;9.30;50.80;;;;;;2700679;39;20531;31
2023/12/28 13:40:43;;;;;;;4.93;2.63;;;9.30;51.20;;;;;;2602370;54;20912;31
2023/12/28 13:43:20;;;;;;;7.15;3.38;;;9.30;50.20;;;;;;2602581;54;20072;31
2023/12/28 13:45:56;;;;;;;5.05;3.00;;;9.30;51.20;;;;;;2602591;54;20027;31
2023/12/28 13:48:32;;;;;;;;;;;9.20;53.20;;;;;;2621273;46;20030;31
2023/12/28 13:51:10;;;;;;;5.85;2.78;;;9.20;50.20;;;;;;2620745;47;21324;31
2023/12/28 13:53:45;;;;;;;5.47;2.83;;;9.20;60.30;;;;;;2602623;54;20023;31
2023/12/28 13:59:24;;;;;;;5.60;2.63;;;9.20;52.50;;;;;;2602182;54;20019;31
2023/12/28 14:02:00;;;;;;;15.40;5.30;;;9.10;50.60;;;;;;2603419;54;20878;31
2023/12/28 14:04:37;;;;;;;7.00;3.40;;;9.30;83.30;;;;;;2603081;54;20093;31
2023/12/28 14:10:11;;;;;;;5.75;3.10;;;9.30;70.60;;;;;;2701523;39;20511;31
2023/12/28 14:15:29;;;;;;;5.80;3.05;;;9.20;52.70;;;;;;2603127;54;20227;31
2023/12/28 14:18:09;;;;;;;7.65;2.60;;;9.20;50.20;;;;;;2621682;46;20877;31
2023/12/28 14:29:55;;;;;;;7.75;3.50;;;8.90;55.00;;;;;;2602509;54;20722;31
2023/12/28 14:35:32;;;;;;;6.32;3.03;;;8.80;56.20;;;;;;2602617;54;20068;31
2023/12/28 14:38:10;;;;;;;6.27;3.37;;;8.70;55.60;;;;;;2603112;54;20030;31